Time;durP1;ratioP1;P1;durP2;ratioP2;P2;SDS_P1;SDS_P2;PMS_P1;PMS_P2;Temp;Humidity;BMP_temperature;BMP_pressure;BME280_temperature;BME280_humidity;BME280_pressure;Samples;Min_cycle;Max_cycle;Signal;HPM_P1;HPM_P2
2024/03/16 00:01:27;;;;;;;0.30;0.30;;;;;;;5.48;100.00;97243.47;5041357;28;20755;-67
2024/03/16 00:03:54;;;;;;;0.30;0.30;;;;;;;5.33;100.00;97248.72;5040363;28;20593;-67
2024/03/16 00:06:20;;;;;;;0.30;0.30;;;;;;;5.30;99.91;97238.38;5041763;28;20221;-68
2024/03/16 00:08:47;;;;;;;0.30;0.30;;;;;;;5.09;100.00;97248.53;5036089;28;20057;-68
2024/03/16 00:11:14;;;;;;;0.30;0.30;;;;;;;5.02;100.00;97237.25;5022139;28;20057;-68
2024/03/16 00:13:41;;;;;;;0.30;0.30;;;;;;;4.99;100.00;97237.91;5022666;28;20134;-67
2024/03/16 00:16:09;;;;;;;0.30;0.30;;;;;;;4.95;100.00;97236.97;5038214;28;20250;-67
2024/03/16 00:18:36;;;;;;;0.30;0.30;;;;;;;4.41;100.00;97151.63;5022417;28;20058;-66
2024/03/16 00:21:04;;;;;;;0.30;0.30;;;;;;;2.56;100.00;96908.81;5022068;28;20051;-66
2024/03/16 00:23:30;;;;;;;0.30;0.30;;;;;;;4.42;100.00;97146.97;5021903;28;20064;-67
2024/03/16 00:25:57;;;;;;;0.30;0.30;;;;;;;4.44;100.00;97155.66;5036641;28;20444;-67
2024/03/16 00:28:24;;;;;;;0.30;0.30;;;;;;;4.72;100.00;97205.41;5021976;28;20050;-67
2024/03/16 00:30:51;;;;;;;0.30;0.30;;;;;;;4.98;100.00;97226.13;5036882;28;20058;-67
2024/03/16 00:33:17;;;;;;;0.30;0.30;;;;;;;5.05;100.00;97239.31;5021956;28;20436;-67
2024/03/16 00:35:44;;;;;;;0.30;0.30;;;;;;;4.71;100.00;97203.81;5021834;28;20052;-67
2024/03/16 00:38:11;;;;;;;0.20;0.20;;;;;;;4.52;100.00;97174.03;5025456;28;20427;-67
2024/03/16 00:40:38;;;;;;;0.30;0.30;;;;;;;4.78;100.00;97228.78;5025165;28;20049;-67
2024/03/16 00:43:05;;;;;;;0.30;0.30;;;;;;;4.79;100.00;97230.41;5025319;28;20065;-67
2024/03/16 00:45:32;;;;;;;0.30;0.30;;;;;;;4.68;100.00;97235.44;5024837;28;20053;-67
2024/03/16 00:48:00;;;;;;;0.30;0.30;;;;;;;4.65;100.00;97236.09;5025742;28;20497;-67
2024/03/16 00:50:27;;;;;;;0.30;0.30;;;;;;;4.28;100.00;97196.50;5040777;28;20061;-67
2024/03/16 00:52:53;;;;;;;0.30;0.30;;;;;;;3.90;100.00;97168.22;5041057;28;20053;-67
2024/03/16 00:55:20;;;;;;;0.30;0.30;;;;;;;4.35;100.00;97229.72;5040550;28;20583;-66
2024/03/16 00:57:47;;;;;;;0.30;0.30;;;;;;;4.31;100.00;97234.25;5025422;28;20057;-67
2024/03/16 01:00:14;;;;;;;0.30;0.30;;;;;;;4.42;100.00;97227.28;5025232;28;20691;-67
2024/03/16 01:02:42;;;;;;;0.30;0.30;;;;;;;4.17;100.00;97188.97;5040035;28;20061;-67
2024/03/16 01:05:09;;;;;;;0.22;0.22;;;;;;;4.42;100.00;97230.03;5024973;28;20144;-67
2024/03/16 01:07:35;;;;;;;0.30;0.30;;;;;;;3.99;100.00;97177.22;5036299;28;20527;-67
2024/03/16 01:10:03;;;;;;;0.30;0.30;;;;;;;3.81;100.00;97134.53;5045172;28;20140;-67
2024/03/16 01:12:29;;;;;;;0.30;0.30;;;;;;;4.37;100.00;97224.72;5044411;28;20049;-67
2024/03/16 01:14:57;;;;;;;0.30;0.30;;;;;;;4.29;100.00;97224.72;5044694;28;20130;-66
2024/03/16 01:17:24;;;;;;;0.20;0.20;;;;;;;4.22;100.00;97221.69;5044720;28;20415;-67
2024/03/16 01:19:50;;;;;;;0.30;0.30;;;;;;;4.28;100.00;97217.66;5043209;28;20059;-67
2024/03/16 01:22:17;;;;;;;0.30;0.30;;;;;;;2.88;100.00;97004.00;5045092;28;20053;-67
2024/03/16 01:24:44;;;;;;;0.30;0.30;;;;;;;4.32;100.00;97224.88;5043209;28;20057;-67
2024/03/16 01:27:11;;;;;;;0.30;0.30;;;;;;;3.51;100.00;97105.41;5044052;28;20045;-67
2024/03/16 01:29:38;;;;;;;0.30;0.30;;;;;;;3.32;100.00;97110.41;5044507;28;20072;-67
2024/03/16 01:32:08;;;;;;;0.30;0.30;;;;;;;4.15;100.00;97213.97;5044278;28;20056;-67
2024/03/16 01:34:35;;;;;;;0.30;0.30;;;;;;;4.01;100.00;97213.34;5044262;28;20049;-67
2024/03/16 01:37:02;;;;;;;0.30;0.30;;;;;;;3.57;99.94;97147.13;5044357;28;20057;-67
2024/03/16 01:39:32;;;;;;;0.30;0.30;;;;;;;3.84;100.00;97221.53;5044230;28;20132;-67
2024/03/16 01:41:59;;;;;;;0.30;0.30;;;;;;;3.91;100.00;97226.53;5044303;28;20052;-67
2024/03/16 01:44:26;;;;;;;0.20;0.20;;;;;;;3.94;100.00;97247.81;5044313;28;20130;-67
2024/03/16 01:46:52;;;;;;;0.20;0.20;;;;;;;3.42;100.00;97145.66;5043872;28;20545;-67
2024/03/16 01:49:19;;;;;;;0.20;0.20;;;;;;;3.63;100.00;97211.56;5042150;28;20059;-67
2024/03/16 01:51:46;;;;;;;0.20;0.20;;;;;;;2.79;100.00;97093.47;5043679;28;20509;-67
2024/03/16 01:54:13;;;;;;;0.20;0.20;;;;;;;2.66;100.00;97056.09;5043875;28;20088;-67
2024/03/16 01:56:40;;;;;;;0.30;0.30;;;;;;;3.73;99.43;97231.22;5044260;28;20045;-67
2024/03/16 01:59:06;;;;;;;0.30;0.30;;;;;;;3.37;99.42;97184.16;5044693;28;20056;-67
2024/03/16 02:01:33;;;;;;;0.20;0.20;;;;;;;3.66;99.62;97233.63;5044274;28;20060;-67
2024/03/16 02:04:00;;;;;;;0.30;0.30;;;;;;;3.42;99.26;97200.44;5043768;28;20098;-67
2024/03/16 02:06:28;;;;;;;0.20;0.20;;;;;;;3.64;100.00;97241.38;5043846;28;20489;-67
2024/03/16 02:08:56;;;;;;;0.20;0.20;;;;;;;3.58;99.96;97226.22;5043692;28;20060;-68
2024/03/16 02:11:23;;;;;;;0.20;0.20;;;;;;;3.52;98.99;97233.00;5058765;28;20055;-67
2024/03/16 02:13:51;;;;;;;0.30;0.30;;;;;;;3.49;100.00;97236.38;5042268;28;20057;-67
2024/03/16 02:16:17;;;;;;;0.20;0.20;;;;;;;3.40;100.00;97235.53;5043395;28;20063;-67
2024/03/16 02:18:44;;;;;;;0.20;0.20;;;;;;;2.78;100.00;97162.97;5041634;28;20409;-67
2024/03/16 02:21:11;;;;;;;0.20;0.20;;;;;;;3.31;100.00;97225.69;5043481;28;20052;-67
2024/03/16 02:23:39;;;;;;;0.20;0.20;;;;;;;3.26;100.00;97234.06;5043643;28;20080;-66
2024/03/16 02:26:07;;;;;;;0.30;0.30;;;;;;;3.27;100.00;97225.53;5041825;28;20053;-66
2024/03/16 02:28:34;;;;;;;0.20;0.20;;;;;;;3.24;100.00;97207.00;5043852;28;20099;-67
2024/03/16 02:31:01;;;;;;;0.30;0.30;;;;;;;2.67;100.00;97128.84;5043348;28;20056;-66
2024/03/16 02:33:28;;;;;;;0.20;0.20;;;;;;;3.47;100.00;97235.88;5041672;28;20052;-66
2024/03/16 02:35:55;;;;;;;0.20;0.20;;;;;;;3.45;100.00;97232.63;5043458;28;20135;-66
2024/03/16 02:38:22;;;;;;;0.20;0.20;;;;;;;3.04;100.00;97189.25;5042287;28;20072;-67
2024/03/16 02:40:49;;;;;;;0.20;0.20;;;;;;;3.30;100.00;97235.84;5043134;28;20049;-67
2024/03/16 02:43:16;;;;;;;0.20;0.20;;;;;;;1.96;100.00;97014.47;5042692;28;20801;-66
2024/03/16 02:45:43;;;;;;;0.20;0.20;;;;;;;3.32;100.00;97233.56;5042077;28;20060;-66
2024/03/16 02:48:11;;;;;;;0.20;0.20;;;;;;;2.89;100.00;97240.88;5042942;28;20045;-66
2024/03/16 02:50:38;;;;;;;0.20;0.20;;;;;;;2.85;100.00;97234.41;5041553;28;20084;-66
2024/03/16 02:53:04;;;;;;;0.20;0.20;;;;;;;3.05;100.00;97244.81;5043096;28;20276;-67
2024/03/16 02:55:31;;;;;;;0.20;0.20;;;;;;;3.11;100.00;97249.00;5042865;28;20052;-67
2024/03/16 02:57:58;;;;;;;0.20;0.20;;;;;;;3.00;100.00;97231.25;5042560;28;20423;-67
2024/03/16 03:00:27;;;;;;;0.20;0.20;;;;;;;1.75;100.00;97115.25;5040779;28;20052;-66
2024/03/16 03:02:54;;;;;;;0.20;0.20;;;;;;;2.27;100.00;97255.66;5042972;28;20135;-67
2024/03/16 03:05:22;;;;;;;0.20;0.20;;;;;;;2.30;100.00;97223.06;5042710;28;20063;-67
2024/03/16 03:07:49;;;;;;;0.22;0.22;;;;;;;2.22;100.00;97253.06;5057449;28;20049;-66
2024/03/16 03:10:16;;;;;;;0.20;0.20;;;;;;;2.59;100.00;97264.38;5042157;28;20439;-66
2024/03/16 03:12:44;;;;;;;0.20;0.20;;;;;;;2.73;100.00;97264.28;5041075;28;20500;-67
2024/03/16 03:15:11;;;;;;;0.20;0.20;;;;;;;2.69;100.00;97263.28;5042208;28;20063;-67
2024/03/16 03:17:38;;;;;;;0.30;0.30;;;;;;;2.14;100.00;97191.78;5042734;28;20138;-66
2024/03/16 03:20:08;;;;;;;0.20;0.20;;;;;;;1.79;100.00;97150.94;5040977;28;20053;-67
2024/03/16 03:22:36;;;;;;;0.20;0.20;;;;;;;2.59;100.00;97269.06;5042912;28;20547;-67
2024/03/16 03:25:03;;;;;;;0.20;0.20;;;;;;;1.95;100.00;97160.31;5043119;28;20506;-65
2024/03/16 03:27:30;;;;;;;0.20;0.20;;;;;;;2.59;100.00;97258.13;5041395;28;20106;-67
2024/03/16 03:29:57;;;;;;;0.20;0.20;;;;;;;2.86;100.00;97288.78;5042563;28;20049;-66
2024/03/16 03:32:24;;;;;;;0.20;0.20;;;;;;;2.63;100.00;97220.81;5042578;28;20152;-67
2024/03/16 03:34:51;;;;;;;0.20;0.20;;;;;;;1.90;100.00;97114.03;5042181;28;20469;-67
2024/03/16 03:37:17;;;;;;;0.20;0.20;;;;;;;2.94;100.00;97270.84;5057438;28;20431;-67
2024/03/16 03:39:46;;;;;;;0.20;0.20;;;;;;;2.93;100.00;97297.38;5042379;28;20067;-67
2024/03/16 03:42:14;;;;;;;0.20;0.20;;;;;;;2.97;100.00;97292.09;5042577;28;20049;-67
2024/03/16 03:44:50;;;;;;;0.20;0.20;;;;;;;2.99;100.00;97287.09;5057142;28;20427;-67
2024/03/16 03:47:17;;;;;;;0.30;0.30;;;;;;;3.00;100.00;97280.50;5040803;28;20044;-66
2024/03/16 03:49:50;;;;;;;0.20;0.20;;;;;;;3.01;100.00;97287.59;5041818;28;20538;-67
2024/03/16 03:52:17;;;;;;;0.20;0.20;;;;;;;2.95;100.00;97283.38;5041936;28;20508;-66
2024/03/16 03:54:44;;;;;;;0.20;0.20;;;;;;;2.88;100.00;97283.00;5042232;28;20057;-66
2024/03/16 03:57:11;;;;;;;0.20;0.20;;;;;;;2.98;100.00;97285.47;5042170;28;20547;-67
2024/03/16 03:59:38;;;;;;;0.30;0.30;;;;;;;3.00;100.00;97285.97;5041859;28;20049;-67
2024/03/16 04:02:05;;;;;;;0.30;0.30;;;;;;;2.96;100.00;97284.97;5040428;28;20045;-66
2024/03/16 04:04:32;;;;;;;0.20;0.20;;;;;;;2.26;100.00;97166.63;5042221;28;20127;-67
2024/03/16 04:06:59;;;;;;;0.30;0.30;;;;;;;2.97;100.00;97281.94;5042024;28;20059;-67
2024/03/16 04:09:26;;;;;;;0.20;0.20;;;;;;;2.81;100.00;97283.47;5040761;28;20077;-67
2024/03/16 04:11:53;;;;;;;0.20;0.20;;;;;;;2.78;100.00;97288.78;5044350;28;20061;-67
2024/03/16 04:14:20;;;;;;;0.20;0.20;;;;;;;2.41;100.00;97234.53;5046530;28;20110;-67
2024/03/16 04:16:48;;;;;;;0.30;0.30;;;;;;;2.70;100.00;97286.81;5044602;28;20165;-67
2024/03/16 04:19:16;;;;;;;0.28;0.28;;;;;;;2.76;100.00;97285.53;5044318;28;20049;-67
2024/03/16 04:21:43;;;;;;;0.20;0.20;;;;;;;2.68;100.00;97267.16;5043937;28;20512;-66
2024/03/16 04:24:10;;;;;;;0.20;0.20;;;;;;;2.17;100.00;97193.06;5045437;28;20531;-66
2024/03/16 04:26:37;;;;;;;0.30;0.30;;;;;;;2.73;100.00;97283.44;5045869;28;20091;-65
2024/03/16 04:29:05;;;;;;;0.20;0.20;;;;;;;2.74;100.00;97276.84;5045480;28;20077;-66
2024/03/16 04:31:32;;;;;;;0.20;0.20;;;;;;;0.67;100.00;96954.81;5043920;28;20045;-66
2024/03/16 04:33:59;;;;;;;0.20;0.20;;;;;;;2.15;100.00;97198.06;5045237;28;20049;-66
2024/03/16 04:36:26;;;;;;;0.20;0.20;;;;;;;2.44;100.00;97272.16;5045250;28;20103;-66
2024/03/16 04:38:53;;;;;;;0.20;0.20;;;;;;;2.76;100.00;97315.63;5043874;28;20145;-66
2024/03/16 04:41:20;;;;;;;0.20;0.20;;;;;;;2.74;100.00;97293.25;5043895;28;20064;-68
2024/03/16 04:43:47;;;;;;;0.20;0.20;;;;;;;2.91;100.00;97324.22;5045457;28;20076;-66
2024/03/16 04:46:14;;;;;;;0.30;0.30;;;;;;;2.87;99.92;97303.28;5043789;28;20486;-67
2024/03/16 04:48:41;;;;;;;0.20;0.20;;;;;;;3.01;99.80;97317.69;5045687;28;20048;-66
2024/03/16 04:51:08;;;;;;;0.20;0.20;;;;;;;3.11;98.93;97325.63;5044352;28;20060;-67
2024/03/16 04:53:35;;;;;;;0.30;0.30;;;;;;;2.48;98.82;97230.22;5045890;28;20071;-67
2024/03/16 04:56:01;;;;;;;0.20;0.20;;;;;;;3.07;99.41;97319.16;5043544;28;20056;-67
2024/03/16 04:58:28;;;;;;;0.20;0.20;;;;;;;3.02;99.75;97308.34;5043556;28;20049;-67
2024/03/16 05:00:57;;;;;;;0.20;0.20;;;;;;;2.27;99.61;97157.28;5044828;28;20521;-68
2024/03/16 05:03:24;;;;;;;0.22;0.22;;;;;;;3.47;99.87;97339.09;5045088;28;20106;-66
2024/03/16 05:05:51;;;;;;;0.30;0.30;;;;;;;3.43;99.82;97322.50;5044714;28;20079;-68
2024/03/16 05:08:18;;;;;;;0.20;0.20;;;;;;;2.93;100.00;97248.13;5043042;28;20443;-66
2024/03/16 05:10:54;;;;;;;0.20;0.20;;;;;;;3.44;100.00;97317.84;5043235;28;20051;-67
2024/03/16 05:13:21;;;;;;;0.28;0.28;;;;;;;3.58;99.69;97313.84;5043166;28;20045;-68
2024/03/16 05:15:48;;;;;;;0.30;0.30;;;;;;;3.34;99.23;97272.41;5044336;28;20110;-65
2024/03/16 05:18:15;;;;;;;0.30;0.30;;;;;;;3.74;99.14;97320.50;5043196;28;20166;-66
2024/03/16 05:20:42;;;;;;;0.25;0.25;;;;;;;3.78;98.96;97302.28;5044710;28;20143;-67
2024/03/16 05:23:08;;;;;;;0.25;0.25;;;;;;;3.62;98.35;97260.03;5043744;28;20150;-66
2024/03/16 05:25:35;;;;;;;0.28;0.28;;;;;;;4.04;98.89;97311.34;5044920;28;20068;-69
2024/03/16 05:28:02;;;;;;;0.30;0.30;;;;;;;4.04;98.38;97316.81;5045615;28;20492;-68
2024/03/16 05:30:31;;;;;;;0.30;0.30;;;;;;;4.18;98.77;97317.47;5044782;28;20049;-67
2024/03/16 05:32:58;;;;;;;0.30;0.30;;;;;;;4.29;98.23;97313.28;5043383;28;20460;-67
2024/03/16 05:35:28;;;;;;;0.22;0.22;;;;;;;3.93;97.29;97257.16;5044421;28;20745;-67
2024/03/16 05:37:55;;;;;;;0.30;0.30;;;;;;;4.51;96.14;97324.06;5053618;28;20502;-68
2024/03/16 05:40:22;;;;;;;0.30;0.30;;;;;;;4.54;96.47;97315.19;5093606;28;20043;-67
2024/03/16 05:42:49;;;;;;;0.28;0.28;;;;;;;4.76;96.39;97316.13;5083856;28;20052;-68
2024/03/16 05:45:16;;;;;;;0.30;0.30;;;;;;;4.60;96.08;97270.00;5083680;28;20060;-68
2024/03/16 05:47:43;;;;;;;0.30;0.30;;;;;;;5.07;95.03;97333.16;5084110;28;20055;-68
2024/03/16 05:50:10;;;;;;;0.30;0.30;;;;;;;5.08;95.71;97313.59;5083730;28;20511;-68
2024/03/16 05:52:37;;;;;;;0.30;0.30;;;;;;;5.27;96.78;97321.44;5083780;28;20469;-67
2024/03/16 05:55:05;;;;;;;0.30;0.30;;;;;;;4.74;95.91;97203.16;5082490;28;20071;-67
2024/03/16 05:57:31;;;;;;;0.30;0.30;;;;;;;5.68;94.23;97316.88;5084270;28;20051;-67
2024/03/16 05:59:58;;;;;;;0.30;0.30;;;;;;;5.12;93.14;97236.88;5083815;28;20058;-67
2024/03/16 06:02:25;;;;;;;0.30;0.30;;;;;;;5.95;93.76;97319.16;5083976;28;20571;-68
2024/03/16 06:04:52;;;;;;;0.30;0.30;;;;;;;6.00;93.71;97296.97;5084494;28;20052;-68
2024/03/16 06:07:20;;;;;;;0.30;0.30;;;;;;;6.36;93.46;97312.88;5094610;28;20063;-67
2024/03/16 06:09:47;;;;;;;0.30;0.30;;;;;;;6.62;94.35;97318.97;5063153;28;20049;-68
2024/03/16 06:12:14;;;;;;;0.40;0.40;;;;;;;6.30;93.65;97244.63;5064134;28;20059;-68
2024/03/16 06:14:40;;;;;;;0.40;0.40;;;;;;;6.94;91.30;97323.63;5064166;28;20258;-67
2024/03/16 06:17:07;;;;;;;0.40;0.40;;;;;;;7.05;89.50;97349.59;5062227;28;20049;-67
2024/03/16 06:19:34;;;;;;;0.40;0.40;;;;;;;7.23;90.37;97328.19;5063371;28;20044;-68
2024/03/16 06:22:02;;;;;;;0.40;0.40;;;;;;;7.45;90.18;97325.00;5063111;28;20055;-68
2024/03/16 06:24:30;;;;;;;0.40;0.40;;;;;;;7.66;88.40;97323.75;5061632;28;20127;-68
2024/03/16 06:27:04;;;;;;;0.40;0.40;;;;;;;7.72;87.42;97327.91;5062923;28;20105;-68
2024/03/16 06:29:32;;;;;;;0.40;0.40;;;;;;;7.57;86.15;97267.91;5062945;28;20056;-68
2024/03/16 06:32:05;;;;;;;0.40;0.40;;;;;;;7.95;84.88;97327.41;5063017;28;20056;-68
2024/03/16 06:34:36;;;;;;;0.40;0.40;;;;;;;7.44;84.01;97262.78;5063061;28;20546;-69
2024/03/16 06:37:03;;;;;;;0.40;0.40;;;;;;;7.72;84.53;97294.81;5062772;28;20049;-69
2024/03/16 06:39:30;;;;;;;0.40;0.40;;;;;;;7.87;84.36;97270.44;5061835;28;20131;-68
2024/03/16 06:41:57;;;;;;;0.40;0.40;;;;;;;6.57;88.87;97239.34;5061987;28;20125;-69
2024/03/16 06:44:24;;;;;;;0.40;0.40;;;;;;;7.39;91.38;97321.69;5063321;28;20499;-68
2024/03/16 06:46:51;;;;;;;0.40;0.40;;;;;;;6.48;92.99;97307.41;5063392;28;20130;-68
2024/03/16 06:49:18;;;;;;;0.40;0.40;;;;;;;6.26;97.80;97277.50;5061835;28;20540;-67
2024/03/16 06:51:45;;;;;;;0.38;0.38;;;;;;;7.03;97.29;97329.06;5062926;28;20590;-67
2024/03/16 06:54:12;;;;;;;0.40;0.40;;;;;;;7.16;96.21;97331.50;5063072;28;20048;-68
2024/03/16 06:56:39;;;;;;;0.40;0.40;;;;;;;6.67;96.19;97329.72;5063285;28;20056;-68
2024/03/16 06:59:06;;;;;;;0.40;0.40;;;;;;;5.69;96.04;97092.38;5062612;28;20050;-68
2024/03/16 07:01:33;;;;;;;0.40;0.40;;;;;;;6.73;94.17;97341.34;5061805;28;20044;-68
2024/03/16 07:04:00;;;;;;;0.30;0.30;;;;;;;6.53;97.30;97342.97;5061360;28;20063;-67
2024/03/16 07:06:27;;;;;;;0.30;0.30;;;;;;;6.45;97.93;97330.09;5059311;28;20059;-66
2024/03/16 07:08:56;;;;;;;0.40;0.40;;;;;;;7.30;98.62;97345.75;5056741;28;20052;-61
2024/03/16 07:11:23;;;;;;;0.40;0.40;;;;;;;6.34;97.44;97229.84;5060091;28;20044;-60
2024/03/16 07:13:50;;;;;;;0.32;0.32;;;;;;;6.07;97.16;97192.75;5058871;28;20510;-71
2024/03/16 07:16:17;;;;;;;0.40;0.40;;;;;;;7.03;99.20;97338.13;5060394;28;20052;-70
2024/03/16 07:18:44;;;;;;;0.40;0.40;;;;;;;7.44;98.84;97285.63;5060739;28;20071;-66
2024/03/16 07:21:11;;;;;;;0.40;0.40;;;;;;;7.79;96.61;97283.19;5060788;28;20055;-65
2024/03/16 07:23:39;;;;;;;0.40;0.40;;;;;;;8.09;97.61;97322.34;5062352;28;20153;-64
2024/03/16 07:26:07;;;;;;;0.40;0.40;;;;;;;8.40;95.00;97328.03;5061243;28;20155;-69
2024/03/16 07:28:34;;;;;;;0.40;0.40;;;;;;;8.31;94.06;97291.50;5060246;28;20048;-69
2024/03/16 07:31:03;;;;;;;0.40;0.40;;;;;;;8.56;93.60;97326.16;5061082;28;20442;-73
2024/03/16 07:33:30;;;;;;;0.40;0.40;;;;;;;7.66;92.21;97220.94;5060740;28;20135;-70
2024/03/16 07:35:58;;;;;;;0.40;0.40;;;;;;;8.23;93.80;97242.78;5059442;28;20515;-75
2024/03/16 07:38:25;;;;;;;0.40;0.40;;;;;;;9.15;91.85;97321.53;5059053;28;20075;-74
2024/03/16 07:40:52;;;;;;;0.40;0.40;;;;;;;9.17;89.21;97275.78;5061039;28;20060;-63
2024/03/16 07:43:20;;;;;;;0.50;0.50;;;;;;;9.36;87.67;97255.72;5060216;28;20052;-61
2024/03/16 07:45:50;;;;;;;0.50;0.50;;;;;;;8.29;86.66;97202.75;5059973;28;20044;-76
2024/03/16 07:48:17;;;;;;;0.40;0.40;;;;;;;8.84;88.99;97332.50;5061329;28;20667;-63
2024/03/16 07:50:44;;;;;;;0.40;0.40;;;;;;;8.80;90.46;97321.34;5061449;28;20078;-61
2024/03/16 07:53:11;;;;;;;0.50;0.50;;;;;;;8.63;92.21;97320.84;5061228;28;20442;-62
2024/03/16 07:55:38;;;;;;;0.40;0.40;;;;;;;8.60;93.04;97271.88;5055851;28;20474;-67
2024/03/16 07:58:05;;;;;;;0.30;0.30;;;;;;;6.61;90.47;97014.59;5058465;28;20055;-70
2024/03/16 08:00:32;;;;;;;0.40;0.40;;;;;;;7.91;92.40;97134.25;5060248;28;20115;-67
2024/03/16 08:03:00;;;;;;;0.50;0.50;;;;;;;8.90;87.78;97220.56;5060512;28;20041;-62
2024/03/16 08:05:27;;;;;;;0.40;0.40;;;;;;;9.20;88.75;97279.78;5061187;28;20151;-63
2024/03/16 08:07:54;;;;;;;0.40;0.40;;;;;;;9.24;84.40;97313.88;5061563;28;20053;-62
2024/03/16 08:10:20;;;;;;;0.40;0.40;;;;;;;7.17;84.11;96958.50;5060796;28;20139;-60
2024/03/16 08:12:47;;;;;;;0.50;0.50;;;;;;;9.66;83.75;97319.69;5061272;28;20064;-69
2024/03/16 08:15:14;;;;;;;0.40;0.40;;;;;;;8.84;79.12;97199.91;5056403;28;20122;-61
2024/03/16 08:17:41;;;;;;;0.47;0.47;;;;;;;9.84;80.74;97362.41;5059073;28;20060;-65
2024/03/16 08:20:08;;;;;;;0.50;0.50;;;;;;;9.57;78.66;97311.56;5057490;28;20053;-63
2024/03/16 08:22:35;;;;;;;0.40;0.40;;;;;;;9.63;79.14;97304.59;5075222;28;20674;-63
2024/03/16 08:25:02;;;;;;;0.50;0.50;;;;;;;9.53;80.19;97269.19;5061065;28;20352;-64
2024/03/16 08:27:29;;;;;;;0.50;0.50;;;;;;;10.00;79.71;97297.59;5060565;28;20102;-63
2024/03/16 08:30:03;;;;;;;0.50;0.50;;;;;;;10.64;75.15;97306.16;5060268;28;20059;-71
2024/03/16 08:32:30;;;;;;;0.50;0.50;;;;;;;10.27;76.79;97302.22;5058806;28;20476;-68
2024/03/16 08:34:57;;;;;;;0.50;0.50;;;;;;;10.57;76.41;97300.47;5061183;28;20056;-66
2024/03/16 08:37:24;;;;;;;0.50;0.50;;;;;;;10.72;75.36;97309.09;5060928;28;20063;-59
2024/03/16 08:39:51;;;;;;;0.50;0.50;;;;;;;11.33;76.05;97293.25;5059831;28;20151;-68
2024/03/16 08:42:18;;;;;;;0.50;0.50;;;;;;;11.51;73.61;97255.50;5074151;28;20048;-69
2024/03/16 08:44:44;;;;;;;0.50;0.50;;;;;;;11.78;72.80;97321.00;5061221;28;20048;-69
2024/03/16 08:47:11;;;;;;;0.60;0.60;;;;;;;12.14;71.40;97314.84;5055780;28;20431;-71
2024/03/16 08:49:38;;;;;;;0.50;0.50;;;;;;;11.87;71.96;97302.91;5051640;28;20102;-64
2024/03/16 08:52:05;;;;;;;0.50;0.50;;;;;;;10.59;71.28;97126.41;5060791;28;20048;-67
2024/03/16 08:54:34;;;;;;;0.50;0.50;;;;;;;11.61;71.61;97210.50;5058576;28;20059;-66
2024/03/16 08:57:03;;;;;;;0.50;0.50;;;;;;;12.56;68.88;97290.47;5060944;28;20056;-69
2024/03/16 08:59:31;;;;;;;0.50;0.50;;;;;;;12.96;66.96;97293.31;5060213;28;20504;-66
2024/03/16 09:01:59;;;;;;;0.60;0.60;;;;;;;13.17;66.38;97276.91;5043456;28;20499;-70
2024/03/16 09:04:26;;;;;;;0.60;0.60;;;;;;;12.74;65.21;97235.09;5063131;28;20055;-68
2024/03/16 09:06:52;;;;;;;0.60;0.60;;;;;;;13.21;64.95;97294.47;5064175;28;20084;-66
2024/03/16 09:09:19;;;;;;;0.60;0.60;;;;;;;13.13;62.99;97223.25;5064045;28;20067;-68
2024/03/16 09:11:47;;;;;;;0.60;0.60;;;;;;;12.77;62.41;97207.31;5063563;28;20063;-62
2024/03/16 09:14:14;;;;;;;0.60;0.60;;;;;;;13.41;63.89;97281.94;5063662;28;20056;-62
2024/03/16 09:16:40;;;;;;;0.60;0.60;;;;;;;13.13;62.06;97201.00;5064259;28;20055;-65
2024/03/16 09:19:07;;;;;;;0.60;0.60;;;;;;;12.47;61.95;97214.91;5053663;28;20063;-63
2024/03/16 09:21:35;;;;;;;0.60;0.60;;;;;;;13.42;63.57;97283.53;5064038;28;20048;-63
2024/03/16 09:24:02;;;;;;;0.55;0.55;;;;;;;13.64;61.13;97246.34;5063748;28;20049;-69
2024/03/16 09:26:29;;;;;;;0.60;0.60;;;;;;;13.73;61.14;97214.59;5063398;28;20060;-70
2024/03/16 09:28:56;;;;;;;0.60;0.60;;;;;;;13.97;58.50;97284.41;5063377;28;20492;-64
2024/03/16 09:31:25;;;;;;;0.60;0.60;;;;;;;14.03;60.27;97290.41;5063592;28;20060;-67
2024/03/16 09:33:53;;;;;;;0.60;0.60;;;;;;;14.09;58.70;97252.66;5062385;28;20205;-66
2024/03/16 09:36:19;;;;;;;0.60;0.60;;;;;;;14.03;61.10;97295.97;5063313;28;20507;-69
2024/03/16 09:38:47;;;;;;;0.60;0.60;;;;;;;13.18;61.17;97178.38;5063556;28;20493;-62
2024/03/16 09:41:19;;;;;;;0.60;0.60;;;;;;;13.53;59.91;97206.50;5059070;28;20049;-69
2024/03/16 09:43:47;;;;;;;0.70;0.70;;;;;;;13.93;60.93;97268.84;5050610;28;20052;-69
2024/03/16 09:46:13;;;;;;;0.57;0.57;;;;;;;13.40;60.52;97269.19;5058487;28;20052;-68
2024/03/16 09:48:39;;;;;;;0.55;0.55;;;;;;;13.76;60.61;97275.88;5059142;28;20053;-70
2024/03/16 09:51:05;;;;;;;0.68;0.68;;;;;;;13.54;60.88;97166.38;5043059;28;20057;-69
2024/03/16 09:53:32;;;;;;;0.50;0.50;;;;;;;13.85;60.76;97217.09;5025988;28;20053;-69
2024/03/16 09:56:16;;;;;;;0.60;0.60;;;;;;;13.87;62.46;97198.00;5042418;28;20048;-70
2024/03/16 09:58:42;;;;;;;0.60;0.60;;;;;;;14.03;62.67;97265.34;5042474;28;20067;-69
2024/03/16 10:01:09;;;;;;;0.60;0.60;;;;;;;13.61;60.90;97152.47;5025347;28;20053;-70
2024/03/16 10:03:35;;;;;;;0.60;0.60;;;;;;;13.72;62.92;97261.13;5042830;28;20764;-70
2024/03/16 10:06:06;;;;;;;0.60;0.60;;;;;;;13.11;64.04;97256.19;5042450;28;20502;-68
2024/03/16 10:08:32;;;;;;;0.60;0.60;;;;;;;12.85;66.10;97259.03;5041463;28;20440;-70
2024/03/16 10:11:18;;;;;;;0.60;0.60;;;;;;;12.33;67.19;97248.06;5041757;28;20068;-70
2024/03/16 10:13:59;;;;;;;0.60;0.60;;;;;;;11.74;68.21;97164.75;5058320;28;20087;-69
2024/03/16 10:16:25;;;;;;;0.50;0.50;;;;;;;12.45;67.21;97261.72;5042371;28;20060;-70
2024/03/16 10:18:54;;;;;;;0.50;0.50;;;;;;;12.78;65.94;97253.41;5042996;28;20053;-70
2024/03/16 10:21:20;;;;;;;0.50;0.50;;;;;;;12.97;65.23;97252.41;5042574;28;20056;-69
2024/03/16 10:23:46;;;;;;;0.63;0.63;;;;;;;13.56;63.36;97260.59;5025443;28;20095;-69
2024/03/16 10:26:15;;;;;;;0.50;0.50;;;;;;;14.32;62.21;97248.44;5041996;28;20061;-69
2024/03/16 10:28:44;;;;;;;0.60;0.60;;;;;;;14.76;60.78;97251.06;5024980;28;20064;-68
2024/03/16 10:31:10;;;;;;;0.63;0.63;;;;;;;14.07;61.75;97179.84;5041955;28;20056;-69
2024/03/16 10:33:36;;;;;;;0.60;0.60;;;;;;;14.22;61.27;97215.72;5041564;28;20048;-71
2024/03/16 10:36:03;;;;;;;0.70;0.70;;;;;;;15.51;59.76;97244.47;5042013;28;20114;-70
2024/03/16 10:38:30;;;;;;;0.70;0.70;;;;;;;16.01;57.00;97238.50;5041425;28;20048;-69
2024/03/16 10:40:59;;;;;;;0.60;0.60;;;;;;;15.30;55.63;97236.84;5041819;28;20075;-69
2024/03/16 10:43:30;;;;;;;0.60;0.60;;;;;;;15.22;58.51;97232.47;5041715;28;20107;-70
2024/03/16 10:45:57;;;;;;;0.60;0.60;;;;;;;14.23;59.71;97228.47;5041386;28;20479;-70
2024/03/16 10:48:23;;;;;;;0.60;0.60;;;;;;;12.40;60.63;96969.56;5041348;28;20047;-70
2024/03/16 10:50:51;;;;;;;0.60;0.60;;;;;;;15.08;58.46;97230.44;5041210;28;20124;-69
2024/03/16 10:53:18;;;;;;;0.60;0.60;;;;;;;14.07;61.38;97232.75;5041419;28;20539;-69
2024/03/16 10:55:46;;;;;;;0.60;0.60;;;;;;;14.05;60.34;97215.63;5041907;28;20106;-69
2024/03/16 10:58:38;;;;;;;0.70;0.70;;;;;;;15.34;57.37;97232.09;5042312;28;20053;-71
2024/03/16 11:01:07;;;;;;;0.60;0.60;;;;;;;15.86;55.48;97197.81;5044463;28;20056;-69
2024/03/16 11:03:36;;;;;;;0.70;0.70;;;;;;;16.69;54.16;97214.00;4693090;28;10001781;-69
2024/03/16 11:06:09;;;;;;;0.70;0.70;;;;;;;16.81;54.60;97222.72;5041056;28;20064;-70
2024/03/16 11:08:37;;;;;;;0.70;0.70;;;;;;;16.45;54.49;97210.88;5065584;28;20052;-69
2024/03/16 11:11:04;;;;;;;0.70;0.70;;;;;;;16.05;55.13;97211.34;5081532;28;20060;-70
2024/03/16 11:13:30;;;;;;;0.68;0.68;;;;;;;16.57;54.78;97204.03;5081146;28;20048;-70
2024/03/16 11:15:57;;;;;;;0.60;0.60;;;;;;;15.11;58.75;97212.91;5080864;28;20507;-69
2024/03/16 11:18:24;;;;;;;0.70;0.70;;;;;;;15.30;57.83;97202.56;5063818;28;20494;-70
2024/03/16 11:20:54;;;;;;;0.60;0.60;;;;;;;15.45;59.94;97249.66;5080625;28;20059;-70
2024/03/16 11:23:25;;;;;;;0.60;0.60;;;;;;;15.12;59.30;97158.72;5080905;28;20109;-69
2024/03/16 11:25:51;;;;;;;0.70;0.70;;;;;;;14.88;58.15;97203.28;5064374;28;20062;-71
2024/03/16 11:28:18;;;;;;;0.60;0.60;;;;;;;13.87;60.66;97143.09;5064154;28;20341;-70
2024/03/16 11:30:44;;;;;;;0.60;0.60;;;;;;;12.49;60.67;97048.63;5080497;28;20055;-69
2024/03/16 11:33:14;;;;;;;0.50;0.50;;;;;;;13.55;61.78;97193.00;5080716;28;20048;-71
2024/03/16 11:35:40;;;;;;;0.60;0.60;;;;;;;13.43;62.88;97196.09;5080878;28;20056;-71
2024/03/16 11:38:12;;;;;;;0.60;0.60;;;;;;;12.97;64.72;97172.59;5064008;28;20580;-72